sensor_id;sensor_type;location;lat;lon;timestamp;P1;durP1;ratioP1;P2;durP2;ratioP2
75894;SDS011;64573;50.328;15.014;2023-05-07T00:01:48;48.67;;;18.60;;
75894;SDS011;64573;50.328;15.014;2023-05-07T00:04:14;50.05;;;18.27;;
75894;SDS011;64573;50.328;15.014;2023-05-07T00:06:39;52.42;;;20.20;;
75894;SDS011;64573;50.328;15.014;2023-05-07T00:09:05;55.85;;;20.38;;
75894;SDS011;64573;50.328;15.014;2023-05-07T00:11:31;58.03;;;19.33;;
75894;SDS011;64573;50.328;15.014;2023-05-07T00:13:57;61.53;;;20.17;;
75894;SDS011;64573;50.328;15.014;2023-05-07T00:16:22;76.90;;;22.80;;
75894;SDS011;64573;50.328;15.014;2023-05-07T00:18:48;62.08;;;19.35;;
75894;SDS011;64573;50.328;15.014;2023-05-07T00:21:13;57.75;;;19.75;;
75894;SDS011;64573;50.328;15.014;2023-05-07T00:23:39;59.50;;;20.40;;
75894;SDS011;64573;50.328;15.014;2023-05-07T00:26:04;58.03;;;18.95;;
75894;SDS011;64573;50.328;15.014;2023-05-07T00:28:29;66.75;;;19.92;;
75894;SDS011;64573;50.328;15.014;2023-05-07T00:30:55;69.95;;;21.02;;
75894;SDS011;64573;50.328;15.014;2023-05-07T00:33:21;63.05;;;20.75;;
75894;SDS011;64573;50.328;15.014;2023-05-07T00:35:47;72.93;;;20.25;;
75894;SDS011;64573;50.328;15.014;2023-05-07T00:38:12;65.28;;;19.67;;
75894;SDS011;64573;50.328;15.014;2023-05-07T00:40:38;60.67;;;19.42;;
75894;SDS011;64573;50.328;15.014;2023-05-07T00:43:03;68.50;;;20.75;;
75894;SDS011;64573;50.328;15.014;2023-05-07T00:45:28;66.85;;;20.52;;
75894;SDS011;64573;50.328;15.014;2023-05-07T00:47:55;56.08;;;18.63;;
75894;SDS011;64573;50.328;15.014;2023-05-07T00:50:22;58.25;;;18.33;;
75894;SDS011;64573;50.328;15.014;2023-05-07T00:52:48;60.20;;;20.10;;
75894;SDS011;64573;50.328;15.014;2023-05-07T00:55:14;56.17;;;18.45;;
75894;SDS011;64573;50.328;15.014;2023-05-07T00:57:40;49.03;;;18.48;;
75894;SDS011;64573;50.328;15.014;2023-05-07T01:00:06;45.25;;;17.67;;
75894;SDS011;64573;50.328;15.014;2023-05-07T01:02:34;43.05;;;16.00;;
75894;SDS011;64573;50.328;15.014;2023-05-07T01:05:00;44.05;;;16.52;;
75894;SDS011;64573;50.328;15.014;2023-05-07T01:07:26;46.30;;;16.38;;
75894;SDS011;64573;50.328;15.014;2023-05-07T01:09:52;39.28;;;15.07;;
75894;SDS011;64573;50.328;15.014;2023-05-07T01:12:18;47.90;;;17.35;;
75894;SDS011;64573;50.328;15.014;2023-05-07T01:14:44;44.92;;;16.58;;
75894;SDS011;64573;50.328;15.014;2023-05-07T01:17:09;32.20;;;14.82;;
75894;SDS011;64573;50.328;15.014;2023-05-07T01:19:34;34.08;;;15.02;;
75894;SDS011;64573;50.328;15.014;2023-05-07T01:22:02;30.40;;;14.05;;
75894;SDS011;64573;50.328;15.014;2023-05-07T01:24:32;25.75;;;13.10;;
75894;SDS011;64573;50.328;15.014;2023-05-07T01:26:58;24.63;;;11.88;;
75894;SDS011;64573;50.328;15.014;2023-05-07T01:29:23;22.88;;;11.98;;
75894;SDS011;64573;50.328;15.014;2023-05-07T01:31:48;18.05;;;10.15;;
75894;SDS011;64573;50.328;15.014;2023-05-07T01:34:17;20.48;;;10.70;;
75894;SDS011;64573;50.328;15.014;2023-05-07T01:36:43;21.52;;;11.38;;
75894;SDS011;64573;50.328;15.014;2023-05-07T01:39:09;22.40;;;11.10;;
75894;SDS011;64573;50.328;15.014;2023-05-07T01:41:35;20.52;;;12.02;;
75894;SDS011;64573;50.328;15.014;2023-05-07T01:44:01;22.27;;;11.63;;
75894;SDS011;64573;50.328;15.014;2023-05-07T01:46:28;20.75;;;11.45;;
75894;SDS011;64573;50.328;15.014;2023-05-07T01:48:54;21.05;;;11.35;;
75894;SDS011;64573;50.328;15.014;2023-05-07T01:51:19;24.88;;;12.63;;
75894;SDS011;64573;50.328;15.014;2023-05-07T01:53:46;24.48;;;12.45;;
75894;SDS011;64573;50.328;15.014;2023-05-07T01:56:15;25.50;;;12.32;;
75894;SDS011;64573;50.328;15.014;2023-05-07T01:58:41;23.25;;;11.77;;
75894;SDS011;64573;50.328;15.014;2023-05-07T02:01:07;30.52;;;12.93;;
75894;SDS011;64573;50.328;15.014;2023-05-07T02:03:32;30.13;;;13.93;;
75894;SDS011;64573;50.328;15.014;2023-05-07T02:05:57;30.23;;;13.50;;
75894;SDS011;64573;50.328;15.014;2023-05-07T02:08:23;32.15;;;14.00;;
75894;SDS011;64573;50.328;15.014;2023-05-07T02:10:48;25.70;;;12.30;;
75894;SDS011;64573;50.328;15.014;2023-05-07T02:13:14;30.05;;;13.68;;
75894;SDS011;64573;50.328;15.014;2023-05-07T02:15:40;27.58;;;12.63;;
75894;SDS011;64573;50.328;15.014;2023-05-07T02:18:06;28.55;;;12.68;;
75894;SDS011;64573;50.328;15.014;2023-05-07T02:20:32;21.95;;;11.13;;
75894;SDS011;64573;50.328;15.014;2023-05-07T02:22:58;27.00;;;12.98;;
75894;SDS011;64573;50.328;15.014;2023-05-07T02:25:23;28.33;;;12.88;;
75894;SDS011;64573;50.328;15.014;2023-05-07T02:27:48;29.50;;;12.93;;
75894;SDS011;64573;50.328;15.014;2023-05-07T02:30:14;30.92;;;13.43;;
75894;SDS011;64573;50.328;15.014;2023-05-07T02:32:40;33.90;;;13.40;;
75894;SDS011;64573;50.328;15.014;2023-05-07T02:35:05;40.95;;;15.10;;
75894;SDS011;64573;50.328;15.014;2023-05-07T02:37:31;33.22;;;13.95;;
75894;SDS011;64573;50.328;15.014;2023-05-07T02:39:56;27.65;;;12.50;;
75894;SDS011;64573;50.328;15.014;2023-05-07T02:42:21;32.08;;;14.20;;
75894;SDS011;64573;50.328;15.014;2023-05-07T02:44:47;36.65;;;14.65;;
75894;SDS011;64573;50.328;15.014;2023-05-07T02:47:13;37.03;;;14.88;;
75894;SDS011;64573;50.328;15.014;2023-05-07T02:49:39;31.48;;;13.90;;
75894;SDS011;64573;50.328;15.014;2023-05-07T02:52:04;33.28;;;14.15;;
75894;SDS011;64573;50.328;15.014;2023-05-07T02:54:29;30.30;;;14.45;;
75894;SDS011;64573;50.328;15.014;2023-05-07T02:56:55;34.58;;;15.18;;
75894;SDS011;64573;50.328;15.014;2023-05-07T02:59:21;32.63;;;14.93;;
75894;SDS011;64573;50.328;15.014;2023-05-07T03:01:46;32.13;;;14.27;;
75894;SDS011;64573;50.328;15.014;2023-05-07T03:04:12;30.20;;;13.10;;
75894;SDS011;64573;50.328;15.014;2023-05-07T03:06:37;27.45;;;13.13;;
75894;SDS011;64573;50.328;15.014;2023-05-07T03:09:02;30.33;;;14.93;;
75894;SDS011;64573;50.328;15.014;2023-05-07T03:11:28;29.95;;;14.27;;
75894;SDS011;64573;50.328;15.014;2023-05-07T03:13:53;30.40;;;15.25;;
75894;SDS011;64573;50.328;15.014;2023-05-07T03:16:18;30.58;;;13.65;;
75894;SDS011;64573;50.328;15.014;2023-05-07T03:18:44;25.38;;;13.18;;
75894;SDS011;64573;50.328;15.014;2023-05-07T03:21:09;28.77;;;14.27;;
75894;SDS011;64573;50.328;15.014;2023-05-07T03:23:34;27.98;;;14.02;;
75894;SDS011;64573;50.328;15.014;2023-05-07T03:26:00;26.23;;;13.45;;
75894;SDS011;64573;50.328;15.014;2023-05-07T03:28:25;25.70;;;12.57;;
75894;SDS011;64573;50.328;15.014;2023-05-07T03:30:50;23.40;;;12.10;;
75894;SDS011;64573;50.328;15.014;2023-05-07T03:33:16;21.33;;;11.82;;
75894;SDS011;64573;50.328;15.014;2023-05-07T03:35:41;20.02;;;10.57;;
75894;SDS011;64573;50.328;15.014;2023-05-07T03:38:07;19.85;;;10.90;;
75894;SDS011;64573;50.328;15.014;2023-05-07T03:40:32;16.75;;;9.75;;
75894;SDS011;64573;50.328;15.014;2023-05-07T03:42:57;16.00;;;9.48;;
75894;SDS011;64573;50.328;15.014;2023-05-07T03:45:24;16.90;;;9.52;;
75894;SDS011;64573;50.328;15.014;2023-05-07T03:47:49;17.25;;;9.75;;
75894;SDS011;64573;50.328;15.014;2023-05-07T03:50:15;14.88;;;9.05;;
75894;SDS011;64573;50.328;15.014;2023-05-07T03:52:40;16.70;;;9.40;;
75894;SDS011;64573;50.328;15.014;2023-05-07T03:55:05;20.60;;;11.55;;
75894;SDS011;64573;50.328;15.014;2023-05-07T03:57:31;20.10;;;11.55;;
75894;SDS011;64573;50.328;15.014;2023-05-07T03:59:57;19.90;;;11.85;;
75894;SDS011;64573;50.328;15.014;2023-05-07T04:02:22;19.90;;;10.77;;
75894;SDS011;64573;50.328;15.014;2023-05-07T04:04:48;19.60;;;10.93;;
75894;SDS011;64573;50.328;15.014;2023-05-07T04:07:14;19.48;;;10.38;;
75894;SDS011;64573;50.328;15.014;2023-05-07T04:09:40;19.08;;;10.80;;
75894;SDS011;64573;50.328;15.014;2023-05-07T04:12:05;20.98;;;10.25;;
75894;SDS011;64573;50.328;15.014;2023-05-07T04:14:30;19.55;;;11.75;;
75894;SDS011;64573;50.328;15.014;2023-05-07T04:16:57;19.70;;;11.02;;
75894;SDS011;64573;50.328;15.014;2023-05-07T04:19:23;19.67;;;11.45;;
75894;SDS011;64573;50.328;15.014;2023-05-07T04:21:48;16.45;;;9.70;;
75894;SDS011;64573;50.328;15.014;2023-05-07T04:24:14;15.98;;;9.15;;
75894;SDS011;64573;50.328;15.014;2023-05-07T04:26:39;15.23;;;8.73;;
75894;SDS011;64573;50.328;15.014;2023-05-07T04:29:05;14.25;;;8.73;;
75894;SDS011;64573;50.328;15.014;2023-05-07T04:31:30;13.50;;;7.93;;
75894;SDS011;64573;50.328;15.014;2023-05-07T04:33:56;13.48;;;8.45;;
75894;SDS011;64573;50.328;15.014;2023-05-07T04:36:22;11.90;;;7.68;;
75894;SDS011;64573;50.328;15.014;2023-05-07T04:38:47;14.32;;;8.35;;
75894;SDS011;64573;50.328;15.014;2023-05-07T04:41:13;10.90;;;7.15;;
75894;SDS011;64573;50.328;15.014;2023-05-07T04:43:38;11.98;;;7.88;;
75894;SDS011;64573;50.328;15.014;2023-05-07T04:46:04;11.68;;;7.88;;
75894;SDS011;64573;50.328;15.014;2023-05-07T04:48:29;11.88;;;7.72;;
75894;SDS011;64573;50.328;15.014;2023-05-07T04:50:55;12.52;;;7.63;;
75894;SDS011;64573;50.328;15.014;2023-05-07T04:53:20;12.27;;;7.72;;
75894;SDS011;64573;50.328;15.014;2023-05-07T04:55:46;13.43;;;7.53;;
75894;SDS011;64573;50.328;15.014;2023-05-07T04:58:12;11.40;;;7.88;;
75894;SDS011;64573;50.328;15.014;2023-05-07T05:00:37;10.10;;;7.28;;
75894;SDS011;64573;50.328;15.014;2023-05-07T05:03:04;10.73;;;7.38;;
75894;SDS011;64573;50.328;15.014;2023-05-07T05:05:31;11.38;;;7.10;;
75894;SDS011;64573;50.328;15.014;2023-05-07T05:07:56;11.23;;;7.07;;
75894;SDS011;64573;50.328;15.014;2023-05-07T05:10:22;9.00;;;6.78;;
75894;SDS011;64573;50.328;15.014;2023-05-07T05:12:47;10.90;;;7.05;;
75894;SDS011;64573;50.328;15.014;2023-05-07T05:15:12;11.45;;;7.10;;
75894;SDS011;64573;50.328;15.014;2023-05-07T05:17:38;14.15;;;7.57;;
75894;SDS011;64573;50.328;15.014;2023-05-07T05:20:04;10.18;;;6.78;;
75894;SDS011;64573;50.328;15.014;2023-05-07T05:22:31;14.73;;;7.15;;
75894;SDS011;64573;50.328;15.014;2023-05-07T05:24:57;13.23;;;6.60;;
75894;SDS011;64573;50.328;15.014;2023-05-07T05:27:22;9.50;;;6.15;;
75894;SDS011;64573;50.328;15.014;2023-05-07T05:29:47;7.88;;;5.97;;
75894;SDS011;64573;50.328;15.014;2023-05-07T05:32:13;11.82;;;5.82;;
75894;SDS011;64573;50.328;15.014;2023-05-07T05:34:38;9.52;;;6.43;;
75894;SDS011;64573;50.328;15.014;2023-05-07T05:37:03;7.85;;;6.00;;
75894;SDS011;64573;50.328;15.014;2023-05-07T05:39:29;8.73;;;6.10;;
75894;SDS011;64573;50.328;15.014;2023-05-07T05:41:54;7.40;;;5.63;;
75894;SDS011;64573;50.328;15.014;2023-05-07T05:44:19;8.57;;;6.13;;
75894;SDS011;64573;50.328;15.014;2023-05-07T05:46:45;9.95;;;6.25;;
75894;SDS011;64573;50.328;15.014;2023-05-07T05:49:10;8.50;;;5.53;;
75894;SDS011;64573;50.328;15.014;2023-05-07T05:51:35;7.65;;;5.45;;
75894;SDS011;64573;50.328;15.014;2023-05-07T05:54:01;8.02;;;5.57;;
75894;SDS011;64573;50.328;15.014;2023-05-07T05:56:26;6.72;;;5.15;;
75894;SDS011;64573;50.328;15.014;2023-05-07T05:58:52;9.27;;;5.70;;
75894;SDS011;64573;50.328;15.014;2023-05-07T06:01:17;8.23;;;5.32;;
75894;SDS011;64573;50.328;15.014;2023-05-07T06:03:43;7.93;;;5.65;;
75894;SDS011;64573;50.328;15.014;2023-05-07T06:06:09;7.70;;;5.63;;
75894;SDS011;64573;50.328;15.014;2023-05-07T06:08:34;8.00;;;5.53;;
75894;SDS011;64573;50.328;15.014;2023-05-07T06:11:00;10.07;;;6.53;;
75894;SDS011;64573;50.328;15.014;2023-05-07T06:13:26;11.05;;;7.05;;
75894;SDS011;64573;50.328;15.014;2023-05-07T06:15:52;48.63;;;23.10;;
75894;SDS011;64573;50.328;15.014;2023-05-07T06:18:17;7.80;;;5.70;;
75894;SDS011;64573;50.328;15.014;2023-05-07T06:20:42;9.05;;;6.35;;
75894;SDS011;64573;50.328;15.014;2023-05-07T06:23:08;10.00;;;6.78;;
75894;SDS011;64573;50.328;15.014;2023-05-07T06:25:33;9.25;;;6.30;;
75894;SDS011;64573;50.328;15.014;2023-05-07T06:27:58;110.57;;;45.70;;
75894;SDS011;64573;50.328;15.014;2023-05-07T06:30:24;8.98;;;5.80;;
75894;SDS011;64573;50.328;15.014;2023-05-07T06:32:49;7.90;;;5.53;;
75894;SDS011;64573;50.328;15.014;2023-05-07T06:35:15;10.45;;;6.70;;
75894;SDS011;64573;50.328;15.014;2023-05-07T06:37:41;8.90;;;5.95;;
75894;SDS011;64573;50.328;15.014;2023-05-07T06:40:07;11.00;;;6.07;;
75894;SDS011;64573;50.328;15.014;2023-05-07T06:42:33;13.43;;;6.78;;
75894;SDS011;64573;50.328;15.014;2023-05-07T06:44:59;9.70;;;6.47;;
75894;SDS011;64573;50.328;15.014;2023-05-07T06:47:24;8.52;;;5.82;;
75894;SDS011;64573;50.328;15.014;2023-05-07T06:49:50;8.55;;;6.00;;
75894;SDS011;64573;50.328;15.014;2023-05-07T06:52:15;11.52;;;7.78;;
75894;SDS011;64573;50.328;15.014;2023-05-07T06:54:41;8.50;;;5.22;;
75894;SDS011;64573;50.328;15.014;2023-05-07T06:57:07;8.35;;;5.10;;
75894;SDS011;64573;50.328;15.014;2023-05-07T06:59:32;9.15;;;6.18;;
75894;SDS011;64573;50.328;15.014;2023-05-07T07:01:57;10.40;;;5.40;;
75894;SDS011;64573;50.328;15.014;2023-05-07T07:04:23;9.07;;;5.70;;
75894;SDS011;64573;50.328;15.014;2023-05-07T07:06:49;11.90;;;6.25;;
75894;SDS011;64573;50.328;15.014;2023-05-07T07:09:14;7.82;;;5.07;;
75894;SDS011;64573;50.328;15.014;2023-05-07T07:11:40;9.10;;;5.57;;
75894;SDS011;64573;50.328;15.014;2023-05-07T07:14:05;10.77;;;6.15;;
75894;SDS011;64573;50.328;15.014;2023-05-07T07:16:31;9.55;;;5.80;;
75894;SDS011;64573;50.328;15.014;2023-05-07T07:18:56;7.20;;;5.28;;
75894;SDS011;64573;50.328;15.014;2023-05-07T07:21:22;8.43;;;4.85;;
75894;SDS011;64573;50.328;15.014;2023-05-07T07:23:47;8.73;;;5.18;;
75894;SDS011;64573;50.328;15.014;2023-05-07T07:26:12;7.65;;;4.95;;
75894;SDS011;64573;50.328;15.014;2023-05-07T07:28:47;7.40;;;4.82;;
75894;SDS011;64573;50.328;15.014;2023-05-07T07:31:12;9.13;;;5.60;;
75894;SDS011;64573;50.328;15.014;2023-05-07T07:33:38;7.85;;;5.00;;
75894;SDS011;64573;50.328;15.014;2023-05-07T07:36:04;9.00;;;5.30;;
75894;SDS011;64573;50.328;15.014;2023-05-07T07:38:31;8.57;;;4.90;;
75894;SDS011;64573;50.328;15.014;2023-05-07T07:40:56;7.35;;;5.15;;
75894;SDS011;64573;50.328;15.014;2023-05-07T07:43:22;10.05;;;5.20;;
75894;SDS011;64573;50.328;15.014;2023-05-07T07:45:47;8.93;;;5.50;;
75894;SDS011;64573;50.328;15.014;2023-05-07T07:48:12;8.38;;;5.13;;
75894;SDS011;64573;50.328;15.014;2023-05-07T07:50:38;7.75;;;4.40;;
75894;SDS011;64573;50.328;15.014;2023-05-07T07:53:03;7.63;;;4.63;;
75894;SDS011;64573;50.328;15.014;2023-05-07T07:55:29;7.50;;;4.35;;
75894;SDS011;64573;50.328;15.014;2023-05-07T07:57:56;9.32;;;5.18;;
75894;SDS011;64573;50.328;15.014;2023-05-07T08:00:21;7.95;;;5.20;;
75894;SDS011;64573;50.328;15.014;2023-05-07T08:02:46;8.93;;;5.43;;
75894;SDS011;64573;50.328;15.014;2023-05-07T08:05:12;7.78;;;4.88;;
75894;SDS011;64573;50.328;15.014;2023-05-07T08:07:37;7.43;;;4.95;;
75894;SDS011;64573;50.328;15.014;2023-05-07T08:10:03;8.65;;;5.40;;
75894;SDS011;64573;50.328;15.014;2023-05-07T08:12:29;8.13;;;5.28;;
75894;SDS011;64573;50.328;15.014;2023-05-07T08:14:54;8.63;;;5.30;;
75894;SDS011;64573;50.328;15.014;2023-05-07T08:17:19;9.50;;;6.00;;
75894;SDS011;64573;50.328;15.014;2023-05-07T08:19:47;8.15;;;5.40;;
75894;SDS011;64573;50.328;15.014;2023-05-07T08:22:12;7.20;;;5.35;;
75894;SDS011;64573;50.328;15.014;2023-05-07T08:24:38;7.93;;;5.43;;
75894;SDS011;64573;50.328;15.014;2023-05-07T08:27:03;7.72;;;4.82;;
75894;SDS011;64573;50.328;15.014;2023-05-07T08:29:28;7.68;;;4.65;;
75894;SDS011;64573;50.328;15.014;2023-05-07T08:31:54;8.43;;;5.38;;
75894;SDS011;64573;50.328;15.014;2023-05-07T08:34:21;8.38;;;4.80;;
75894;SDS011;64573;50.328;15.014;2023-05-07T08:36:47;7.32;;;4.88;;
75894;SDS011;64573;50.328;15.014;2023-05-07T08:39:13;8.88;;;5.13;;
75894;SDS011;64573;50.328;15.014;2023-05-07T08:41:40;11.05;;;5.40;;
75894;SDS011;64573;50.328;15.014;2023-05-07T08:44:06;8.00;;;5.35;;
75894;SDS011;64573;50.328;15.014;2023-05-07T08:46:37;10.32;;;6.20;;
75894;SDS011;64573;50.328;15.014;2023-05-07T08:49:05;8.32;;;5.45;;
75894;SDS011;64573;50.328;15.014;2023-05-07T08:51:30;9.43;;;5.57;;
75894;SDS011;64573;50.328;15.014;2023-05-07T08:53:56;7.07;;;4.63;;
75894;SDS011;64573;50.328;15.014;2023-05-07T08:56:21;8.30;;;5.13;;
75894;SDS011;64573;50.328;15.014;2023-05-07T08:58:47;8.60;;;5.55;;
75894;SDS011;64573;50.328;15.014;2023-05-07T09:01:13;8.48;;;5.72;;
75894;SDS011;64573;50.328;15.014;2023-05-07T09:03:40;8.13;;;5.65;;
75894;SDS011;64573;50.328;15.014;2023-05-07T09:06:09;6.80;;;4.25;;
75894;SDS011;64573;50.328;15.014;2023-05-07T09:08:35;4.75;;;3.50;;
75894;SDS011;64573;50.328;15.014;2023-05-07T09:11:01;4.72;;;3.20;;
75894;SDS011;64573;50.328;15.014;2023-05-07T09:13:27;4.35;;;3.30;;
75894;SDS011;64573;50.328;15.014;2023-05-07T09:15:53;4.00;;;2.88;;
75894;SDS011;64573;50.328;15.014;2023-05-07T09:18:18;3.10;;;2.65;;
75894;SDS011;64573;50.328;15.014;2023-05-07T09:20:43;3.28;;;2.65;;
75894;SDS011;64573;50.328;15.014;2023-05-07T09:23:09;3.08;;;2.40;;
75894;SDS011;64573;50.328;15.014;2023-05-07T09:25:35;2.67;;;2.30;;
75894;SDS011;64573;50.328;15.014;2023-05-07T09:28:01;3.15;;;2.65;;
75894;SDS011;64573;50.328;15.014;2023-05-07T09:30:28;3.03;;;2.30;;
75894;SDS011;64573;50.328;15.014;2023-05-07T09:32:55;2.42;;;2.22;;
75894;SDS011;64573;50.328;15.014;2023-05-07T09:35:21;2.75;;;2.20;;
75894;SDS011;64573;50.328;15.014;2023-05-07T09:37:49;3.08;;;2.20;;
75894;SDS011;64573;50.328;15.014;2023-05-07T09:40:24;2.33;;;2.13;;
75894;SDS011;64573;50.328;15.014;2023-05-07T09:42:52;2.22;;;2.00;;
75894;SDS011;64573;50.328;15.014;2023-05-07T09:45:36;2.80;;;2.45;;
75894;SDS011;64573;50.328;15.014;2023-05-07T09:48:04;4.07;;;2.17;;
75894;SDS011;64573;50.328;15.014;2023-05-07T09:50:35;2.97;;;2.38;;
75894;SDS011;64573;50.328;15.014;2023-05-07T09:53:04;2.72;;;2.25;;
75894;SDS011;64573;50.328;15.014;2023-05-07T09:55:31;3.00;;;2.53;;
75894;SDS011;64573;50.328;15.014;2023-05-07T09:57:56;3.33;;;2.97;;
75894;SDS011;64573;50.328;15.014;2023-05-07T10:00:23;3.38;;;3.08;;
75894;SDS011;64573;50.328;15.014;2023-05-07T10:02:51;3.38;;;2.83;;
75894;SDS011;64573;50.328;15.014;2023-05-07T10:05:17;3.15;;;2.85;;
75894;SDS011;64573;50.328;15.014;2023-05-07T10:07:43;3.55;;;2.95;;
75894;SDS011;64573;50.328;15.014;2023-05-07T10:10:09;3.33;;;2.95;;
75894;SDS011;64573;50.328;15.014;2023-05-07T10:12:35;3.88;;;3.10;;
75894;SDS011;64573;50.328;15.014;2023-05-07T10:15:12;5.80;;;3.20;;
75894;SDS011;64573;50.328;15.014;2023-05-07T10:17:39;3.70;;;3.22;;
75894;SDS011;64573;50.328;15.014;2023-05-07T10:20:05;4.78;;;3.38;;
75894;SDS011;64573;50.328;15.014;2023-05-07T10:22:37;4.03;;;3.08;;
75894;SDS011;64573;50.328;15.014;2023-05-07T10:25:14;4.30;;;3.35;;
75894;SDS011;64573;50.328;15.014;2023-05-07T10:27:53;5.15;;;3.42;;
75894;SDS011;64573;50.328;15.014;2023-05-07T10:30:26;3.90;;;2.90;;
75894;SDS011;64573;50.328;15.014;2023-05-07T10:32:56;3.53;;;2.95;;
75894;SDS011;64573;50.328;15.014;2023-05-07T10:35:30;3.95;;;3.13;;
75894;SDS011;64573;50.328;15.014;2023-05-07T10:38:01;3.83;;;3.13;;
75894;SDS011;64573;50.328;15.014;2023-05-07T10:40:27;4.00;;;3.40;;
75894;SDS011;64573;50.328;15.014;2023-05-07T10:43:02;3.55;;;3.13;;
75894;SDS011;64573;50.328;15.014;2023-05-07T10:45:32;3.55;;;3.05;;
75894;SDS011;64573;50.328;15.014;2023-05-07T10:48:08;3.28;;;2.70;;
75894;SDS011;64573;50.328;15.014;2023-05-07T10:50:33;4.22;;;3.05;;
75894;SDS011;64573;50.328;15.014;2023-05-07T10:55:44;4.05;;;3.22;;
75894;SDS011;64573;50.328;15.014;2023-05-07T11:00:50;4.57;;;3.10;;
75894;SDS011;64573;50.328;15.014;2023-05-07T11:03:16;3.47;;;3.00;;
75894;SDS011;64573;50.328;15.014;2023-05-07T11:05:42;3.35;;;2.90;;
75894;SDS011;64573;50.328;15.014;2023-05-07T11:08:08;3.13;;;2.70;;
75894;SDS011;64573;50.328;15.014;2023-05-07T11:10:56;3.15;;;2.55;;
75894;SDS011;64573;50.328;15.014;2023-05-07T11:16:19;4.03;;;2.72;;
75894;SDS011;64573;50.328;15.014;2023-05-07T11:21:31;4.68;;;3.58;;
75894;SDS011;64573;50.328;15.014;2023-05-07T11:23:57;3.72;;;2.88;;
75894;SDS011;64573;50.328;15.014;2023-05-07T11:26:23;5.35;;;3.30;;
75894;SDS011;64573;50.328;15.014;2023-05-07T11:28:50;4.05;;;3.30;;
75894;SDS011;64573;50.328;15.014;2023-05-07T11:31:21;4.45;;;3.58;;
75894;SDS011;64573;50.328;15.014;2023-05-07T11:33:48;4.07;;;3.30;;
75894;SDS011;64573;50.328;15.014;2023-05-07T11:36:14;3.92;;;3.35;;
75894;SDS011;64573;50.328;15.014;2023-05-07T11:38:40;3.65;;;3.30;;
75894;SDS011;64573;50.328;15.014;2023-05-07T11:41:06;3.92;;;3.40;;
75894;SDS011;64573;50.328;15.014;2023-05-07T11:43:32;5.50;;;3.97;;
75894;SDS011;64573;50.328;15.014;2023-05-07T11:46:10;3.70;;;3.10;;
75894;SDS011;64573;50.328;15.014;2023-05-07T11:48:36;3.63;;;2.97;;
75894;SDS011;64573;50.328;15.014;2023-05-07T11:51:06;3.33;;;2.90;;
75894;SDS011;64573;50.328;15.014;2023-05-07T11:53:37;4.65;;;3.35;;
75894;SDS011;64573;50.328;15.014;2023-05-07T11:56:10;4.35;;;3.30;;
75894;SDS011;64573;50.328;15.014;2023-05-07T11:58:39;3.72;;;3.35;;
75894;SDS011;64573;50.328;15.014;2023-05-07T12:01:09;4.40;;;3.20;;
75894;SDS011;64573;50.328;15.014;2023-05-07T12:03:36;4.95;;;3.55;;
75894;SDS011;64573;50.328;15.014;2023-05-07T12:06:07;5.30;;;3.75;;
75894;SDS011;64573;50.328;15.014;2023-05-07T12:08:35;3.90;;;3.22;;
75894;SDS011;64573;50.328;15.014;2023-05-07T12:11:02;5.15;;;4.10;;
75894;SDS011;64573;50.328;15.014;2023-05-07T12:13:27;4.28;;;3.75;;
75894;SDS011;64573;50.328;15.014;2023-05-07T12:15:53;3.92;;;3.42;;
75894;SDS011;64573;50.328;15.014;2023-05-07T12:18:20;4.80;;;3.90;;
75894;SDS011;64573;50.328;15.014;2023-05-07T12:20:46;5.10;;;4.00;;
75894;SDS011;64573;50.328;15.014;2023-05-07T12:23:12;4.50;;;3.78;;
75894;SDS011;64573;50.328;15.014;2023-05-07T12:25:42;5.70;;;4.35;;
75894;SDS011;64573;50.328;15.014;2023-05-07T12:28:15;5.30;;;4.20;;
75894;SDS011;64573;50.328;15.014;2023-05-07T12:30:43;5.28;;;4.38;;
75894;SDS011;64573;50.328;15.014;2023-05-07T12:33:10;5.38;;;3.40;;
75894;SDS011;64573;50.328;15.014;2023-05-07T12:35:39;5.20;;;3.90;;
75894;SDS011;64573;50.328;15.014;2023-05-07T12:38:12;4.32;;;3.53;;
75894;SDS011;64573;50.328;15.014;2023-05-07T12:40:40;4.30;;;3.90;;
75894;SDS011;64573;50.328;15.014;2023-05-07T12:43:07;4.70;;;3.95;;
75894;SDS011;64573;50.328;15.014;2023-05-07T12:45:39;4.28;;;3.67;;
75894;SDS011;64573;50.328;15.014;2023-05-07T12:48:06;5.85;;;3.45;;
75894;SDS011;64573;50.328;15.014;2023-05-07T12:50:34;4.03;;;3.33;;
75894;SDS011;64573;50.328;15.014;2023-05-07T12:53:00;4.35;;;3.55;;
75894;SDS011;64573;50.328;15.014;2023-05-07T12:55:30;3.47;;;3.08;;
75894;SDS011;64573;50.328;15.014;2023-05-07T12:57:56;4.65;;;3.00;;
75894;SDS011;64573;50.328;15.014;2023-05-07T13:00:35;4.22;;;3.20;;
75894;SDS011;64573;50.328;15.014;2023-05-07T13:03:01;3.33;;;2.63;;
75894;SDS011;64573;50.328;15.014;2023-05-07T13:05:27;3.75;;;3.33;;
75894;SDS011;64573;50.328;15.014;2023-05-07T13:07:55;4.18;;;3.25;;
75894;SDS011;64573;50.328;15.014;2023-05-07T13:10:24;3.63;;;3.10;;
75894;SDS011;64573;50.328;15.014;2023-05-07T13:12:50;3.50;;;3.10;;
75894;SDS011;64573;50.328;15.014;2023-05-07T13:15:16;3.60;;;2.90;;
75894;SDS011;64573;50.328;15.014;2023-05-07T13:17:42;3.65;;;3.05;;
75894;SDS011;64573;50.328;15.014;2023-05-07T13:20:08;3.40;;;2.88;;
75894;SDS011;64573;50.328;15.014;2023-05-07T13:22:34;3.08;;;2.50;;
75894;SDS011;64573;50.328;15.014;2023-05-07T13:25:00;8.45;;;2.63;;
75894;SDS011;64573;50.328;15.014;2023-05-07T13:27:25;3.08;;;2.78;;
75894;SDS011;64573;50.328;15.014;2023-05-07T13:29:51;3.33;;;2.92;;
75894;SDS011;64573;50.328;15.014;2023-05-07T13:32:16;3.75;;;2.80;;
75894;SDS011;64573;50.328;15.014;2023-05-07T13:34:41;3.08;;;2.70;;
75894;SDS011;64573;50.328;15.014;2023-05-07T13:37:07;3.97;;;2.22;;
75894;SDS011;64573;50.328;15.014;2023-05-07T13:39:36;4.32;;;2.58;;
75894;SDS011;64573;50.328;15.014;2023-05-07T13:42:02;4.50;;;2.97;;
75894;SDS011;64573;50.328;15.014;2023-05-07T13:44:27;3.22;;;2.65;;
75894;SDS011;64573;50.328;15.014;2023-05-07T13:46:52;4.82;;;2.88;;
75894;SDS011;64573;50.328;15.014;2023-05-07T13:49:18;3.15;;;2.70;;
75894;SDS011;64573;50.328;15.014;2023-05-07T13:51:43;3.58;;;2.75;;
75894;SDS011;64573;50.328;15.014;2023-05-07T13:54:08;5.07;;;3.03;;
75894;SDS011;64573;50.328;15.014;2023-05-07T13:56:34;3.42;;;2.80;;
75894;SDS011;64573;50.328;15.014;2023-05-07T13:59:00;3.25;;;2.55;;
75894;SDS011;64573;50.328;15.014;2023-05-07T14:01:26;2.78;;;2.33;;
75894;SDS011;64573;50.328;15.014;2023-05-07T14:03:51;3.22;;;2.67;;
75894;SDS011;64573;50.328;15.014;2023-05-07T14:06:17;3.00;;;2.35;;
75894;SDS011;64573;50.328;15.014;2023-05-07T14:08:42;2.60;;;2.40;;
75894;SDS011;64573;50.328;15.014;2023-05-07T14:11:07;4.78;;;2.50;;
75894;SDS011;64573;50.328;15.014;2023-05-07T14:13:33;3.42;;;2.20;;
75894;SDS011;64573;50.328;15.014;2023-05-07T14:15:59;2.88;;;2.50;;
75894;SDS011;64573;50.328;15.014;2023-05-07T14:18:25;2.75;;;2.42;;
75894;SDS011;64573;50.328;15.014;2023-05-07T14:20:53;2.90;;;2.50;;
75894;SDS011;64573;50.328;15.014;2023-05-07T14:23:19;2.97;;;2.58;;
75894;SDS011;64573;50.328;15.014;2023-05-07T14:25:44;2.53;;;2.15;;
75894;SDS011;64573;50.328;15.014;2023-05-07T14:28:11;2.90;;;2.60;;
75894;SDS011;64573;50.328;15.014;2023-05-07T14:30:36;4.93;;;2.35;;
75894;SDS011;64573;50.328;15.014;2023-05-07T14:33:01;2.58;;;2.30;;